createdAt,value
2018-09-21T00:00:09.097Z,97689.48
2018-09-21T00:02:36.882Z,97692.09
2018-09-21T00:05:03.548Z,97689.67
2018-09-21T00:07:31.043Z,97683.16
2018-09-21T00:09:57.794Z,97685.81
2018-09-21T00:12:24.619Z,97688.10
2018-09-21T00:14:51.404Z,97685.44
2018-09-21T00:17:18.551Z,97688.66
2018-09-21T00:19:46.081Z,97688.67
2018-09-21T00:22:12.723Z,97681.82
2018-09-21T00:24:40.994Z,97679.20
2018-09-21T00:27:07.609Z,97677.17
2018-09-21T00:29:35.255Z,97676.27
2018-09-21T00:32:02.084Z,97670.73
2018-09-21T00:34:29.691Z,97668.56
2018-09-21T00:36:58.420Z,97668.34
2018-09-21T00:39:25.880Z,97665.34
2018-09-21T00:41:53.175Z,97664.43
2018-09-21T00:44:20.020Z,97660.99
2018-09-21T00:46:47.107Z,97651.78
2018-09-21T00:49:15.022Z,97653.51
2018-09-21T00:51:43.038Z,97651.27
2018-09-21T00:54:10.876Z,97643.75
2018-09-21T00:56:37.947Z,97652.27
2018-09-21T01:01:36.430Z,97643.81
2018-09-21T01:04:03.794Z,97643.74
2018-09-21T01:06:31.010Z,97644.33
2018-09-21T01:08:58.138Z,97646.06
2018-09-21T01:11:25.226Z,97636.64
2018-09-21T01:13:51.905Z,97640.27
2018-09-21T01:18:50.705Z,97632.97
2018-09-21T01:21:17.564Z,97628.72
2018-09-21T01:23:44.470Z,97631.41
2018-09-21T01:26:13.315Z,97624.69
2018-09-21T01:28:41.940Z,97623.69
2018-09-21T01:31:09.423Z,97625.88
2018-09-21T01:33:37.427Z,97626.41
2018-09-21T01:36:05.992Z,97624.42
2018-09-21T01:38:33.922Z,97615.91
2018-09-21T01:41:00.919Z,97622.58
2018-09-21T01:43:31.821Z,97618.92
2018-09-21T01:46:00.668Z,97621.70
2018-09-21T01:48:30.942Z,97621.05
2018-09-21T01:51:01.568Z,97619.64
2018-09-21T01:53:29.321Z,97613.31
2018-09-21T01:56:01.046Z,97613.47
2018-09-21T01:58:29.021Z,97615.27
2018-09-21T02:00:56.184Z,97621.12
2018-09-21T02:03:23.527Z,97618.17
2018-09-21T02:05:50.284Z,97618.30
2018-09-21T02:08:17.451Z,97616.97
2018-09-21T02:10:44.482Z,97615.11
2018-09-21T02:13:12.582Z,97616.15
2018-09-21T02:15:39.476Z,97612.28
2018-09-21T02:18:06.318Z,97610.66
2018-09-21T02:20:35.216Z,97611.18
2018-09-21T02:23:02.562Z,97614.75
2018-09-21T02:25:29.222Z,97610.53
2018-09-21T02:27:56.827Z,97608.80
2018-09-21T02:30:25.080Z,97606.63
2018-09-21T02:32:54.423Z,97606.61
2018-09-21T02:35:21.461Z,97609.85
2018-09-21T02:37:50.889Z,97603.50
2018-09-21T02:40:19.051Z,97605.57
2018-09-21T02:42:47.253Z,97607.70
2018-09-21T02:45:15.006Z,97600.84
2018-09-21T02:47:43.406Z,97598.42
2018-09-21T02:50:10.917Z,97600.16
2018-09-21T02:52:38.372Z,97608.14
2018-09-21T02:55:06.482Z,97602.16
2018-09-21T02:57:36.616Z,97602.08
2018-09-21T03:00:05.597Z,97603.19
2018-09-21T03:02:33.302Z,97600.47
2018-09-21T03:05:02.545Z,97600.89
2018-09-21T03:07:29.983Z,97601.89
2018-09-21T03:09:56.801Z,97593.77
2018-09-21T03:14:55.727Z,97591.69
2018-09-21T03:17:23.297Z,97589.42
2018-09-21T03:19:51.824Z,97588.79
2018-09-21T03:22:19.482Z,97582.91
2018-09-21T03:24:46.984Z,97590.91
2018-09-21T03:27:14.794Z,97588.83
2018-09-21T03:29:41.799Z,97579.50
2018-09-21T03:32:09.191Z,97583.53
2018-09-21T03:37:07.881Z,97581.34
2018-09-21T03:39:34.708Z,97575.15
2018-09-21T03:42:01.400Z,97577.87
2018-09-21T03:44:28.054Z,97575.88
2018-09-21T03:46:54.684Z,97577.27
2018-09-21T03:49:23.162Z,97574.55
2018-09-21T03:51:50.873Z,97572.43
2018-09-21T03:54:18.547Z,97569.30
2018-09-21T03:56:45.748Z,97571.45
2018-09-21T03:59:12.456Z,97569.08
2018-09-21T04:01:40.057Z,97566.23
2018-09-21T04:04:10.104Z,97575.05
2018-09-21T04:06:36.745Z,97575.94
2018-09-21T04:09:03.724Z,97570.36
2018-09-21T04:11:30.872Z,97571.64
2018-09-21T04:13:58.263Z,97576.12
2018-09-21T04:16:25.793Z,97569.47
2018-09-21T04:18:52.675Z,97568.29
2018-09-21T04:21:19.721Z,97564.05
2018-09-21T04:23:47.384Z,97564.27
2018-09-21T04:26:15.026Z,97567.09
2018-09-21T04:28:42.482Z,97570.06
2018-09-21T04:31:10.330Z,97565.80
2018-09-21T04:33:36.991Z,97567.28
2018-09-21T04:36:04.828Z,97565.35
2018-09-21T04:38:32.996Z,97569.37
2018-09-21T04:41:01.403Z,97567.52
2018-09-21T04:43:28.225Z,97561.86
2018-09-21T04:45:54.912Z,97564.38
2018-09-21T04:48:21.745Z,97568.39
2018-09-21T04:50:48.786Z,97562.97
2018-09-21T04:53:17.041Z,97568.05
2018-09-21T04:55:45.312Z,97569.47
2018-09-21T04:58:12.070Z,97567.61
2018-09-21T05:00:39.960Z,97570.77
2018-09-21T05:03:08.309Z,97567.13
2018-09-21T05:05:35.001Z,97571.54
2018-09-21T05:08:02.279Z,97575.13
2018-09-21T05:10:29.419Z,97576.16
2018-09-21T05:15:29.617Z,97573.43
2018-09-21T05:17:57.605Z,97576.50
2018-09-21T05:20:25.100Z,97575.48
2018-09-21T05:22:54.115Z,97573.36
2018-09-21T05:25:20.823Z,97566.83
2018-09-21T05:27:48.352Z,97570.82
2018-09-21T05:30:15.927Z,97571.67
2018-09-21T05:32:42.705Z,97569.83
2018-09-21T05:35:11.216Z,97571.83
2018-09-21T05:37:39.436Z,97573.16
2018-09-21T05:40:07.583Z,97571.93
2018-09-21T05:42:36.214Z,97574.39
2018-09-21T05:45:03.522Z,97571.45
2018-09-21T05:47:30.266Z,97572.91
2018-09-21T05:49:57.684Z,97567.03
2018-09-21T05:52:28.465Z,97571.87
2018-09-21T05:54:55.455Z,97568.52
2018-09-21T05:57:22.155Z,97567.18
2018-09-21T05:59:48.845Z,97566.70
2018-09-21T06:02:19.502Z,97564.20
2018-09-21T06:04:47.735Z,97567.89
2018-09-21T06:07:15.279Z,97562.30
2018-09-21T06:09:43.552Z,97566.67
2018-09-21T06:12:10.267Z,97563.90
2018-09-21T06:17:08.514Z,97567.75
2018-09-21T06:19:35.469Z,97566.99
2018-09-21T06:22:02.183Z,97567.70
2018-09-21T06:24:28.893Z,97563.50
2018-09-21T06:26:55.672Z,97557.51
2018-09-21T06:29:22.449Z,97562.67
2018-09-21T06:31:49.140Z,97557.99
2018-09-21T06:34:16.205Z,97559.47
2018-09-21T06:36:43.050Z,97560.44
2018-09-21T06:39:09.730Z,97553.47
2018-09-21T06:41:36.472Z,97543.11
2018-09-21T06:44:03.351Z,97544.45
2018-09-21T06:46:29.973Z,97548.73
2018-09-21T06:48:58.028Z,97544.39
2018-09-21T06:51:27.898Z,97542.52
2018-09-21T06:53:55.687Z,97540.03
2018-09-21T06:56:26.828Z,97545.28
2018-09-21T06:58:55.772Z,97537.58
2018-09-21T07:01:27.069Z,97538.39
2018-09-21T07:03:53.681Z,97533.06
2018-09-21T07:06:20.402Z,97534.83
2018-09-21T07:08:49.384Z,97537.08
2018-09-21T07:11:16.407Z,97530.09
2018-09-21T07:13:43.383Z,97530.81
2018-09-21T07:16:11.663Z,97535.56
2018-09-21T07:18:38.360Z,97525.23
2018-09-21T07:21:04.918Z,97523.37
2018-09-21T07:23:32.018Z,97533.27
2018-09-21T07:26:00.793Z,97533.47
2018-09-21T07:28:31.066Z,97525.61
2018-09-21T07:31:00.918Z,97531.89
2018-09-21T07:33:29.684Z,97530.81
2018-09-21T07:35:58.593Z,97530.06
2018-09-21T07:38:30.088Z,97525.97
2018-09-21T07:40:56.818Z,97524.98
2018-09-21T07:43:23.537Z,97520.96
2018-09-21T07:45:50.283Z,97520.72
2018-09-21T07:48:16.810Z,97526.05
2018-09-21T07:50:44.517Z,97522.70
2018-09-21T07:53:11.202Z,97520.64
2018-09-21T07:55:38.373Z,97514.80
2018-09-21T07:58:05.134Z,97509.44
2018-09-21T08:00:34.156Z,97511.07
2018-09-21T08:03:01.892Z,97508.39
2018-09-21T08:05:37.116Z,97512.41
2018-09-21T08:08:03.983Z,97509.73
2018-09-21T08:10:37.128Z,97510.28
2018-09-21T08:13:05.484Z,97505.70
2018-09-21T08:15:32.058Z,97503.27
2018-09-21T08:17:58.700Z,97503.27
2018-09-21T08:20:34.422Z,97502.98
2018-09-21T08:23:05.944Z,97500.55
2018-09-21T08:25:32.751Z,97506.99
2018-09-21T08:28:01.584Z,97497.45
2018-09-21T08:30:34.703Z,97500.47
2018-09-21T08:33:07.909Z,97492.83
2018-09-21T08:35:35.185Z,97491.50
2018-09-21T08:38:01.719Z,97478.86
2018-09-21T08:40:28.671Z,97486.02
2018-09-21T08:42:58.481Z,97478.60
2018-09-21T08:45:28.956Z,97476.17
2018-09-21T08:47:55.515Z,97478.05
2018-09-21T08:50:24.149Z,97481.42
2018-09-21T08:52:50.935Z,97472.67
2018-09-21T08:55:17.892Z,97475.30
2018-09-21T08:57:46.749Z,97465.50
2018-09-21T09:00:14.080Z,97467.52
2018-09-21T09:02:43.120Z,97466.52
2018-09-21T09:05:12.074Z,97459.83
2018-09-21T09:07:38.809Z,97456.89
2018-09-21T09:10:07.143Z,97459.58
2018-09-21T09:12:33.668Z,97449.78
2018-09-21T09:15:01.497Z,97451.28
2018-09-21T09:20:01.477Z,97450.64
2018-09-21T09:22:30.020Z,97447.23
2018-09-21T09:24:57.351Z,97446.25
2018-09-21T09:27:26.993Z,97448.65
2018-09-21T09:29:55.124Z,97441.58
2018-09-21T09:32:23.048Z,97435.05
2018-09-21T09:34:49.832Z,97433.42
2018-09-21T09:39:50.752Z,97424.08
2018-09-21T09:42:21.358Z,97425.82
2018-09-21T09:44:48.122Z,97423.63
2018-09-21T09:47:14.644Z,97424.78
2018-09-21T09:49:41.211Z,97423.67
2018-09-21T09:52:10.484Z,97419.75
2018-09-21T09:54:39.455Z,97412.89
2018-09-21T09:57:10.115Z,97415.13
2018-09-21T09:59:39.627Z,97414.70
2018-09-21T10:02:12.365Z,97417.55
2018-09-21T10:04:45.027Z,97407.58
2018-09-21T10:07:11.558Z,97407.90
2018-09-21T10:09:39.607Z,97410.59
2018-09-21T10:12:06.223Z,97403.88
2018-09-21T10:17:10.097Z,97401.98
2018-09-21T10:19:42.685Z,97396.62
2018-09-21T10:22:10.670Z,97390.83
2018-09-21T10:24:40.255Z,97400.97
2018-09-21T10:27:11.068Z,97394.28
2018-09-21T10:29:41.391Z,97393.66
2018-09-21T10:32:08.045Z,97389.73
2018-09-21T10:34:39.986Z,97393.64
2018-09-21T10:37:06.928Z,97394.18
2018-09-21T10:39:37.116Z,97395.33
2018-09-21T10:42:06.607Z,97386.11
2018-09-21T10:47:06.110Z,97386.84
2018-09-21T10:52:04.427Z,97387.73
2018-09-21T10:57:03.968Z,97378.61
2018-09-21T10:59:36.980Z,97383.05
2018-09-21T11:02:17.177Z,97377.53
2018-09-21T11:04:43.852Z,97366.88
2018-09-21T11:07:15.965Z,97368.02
2018-09-21T11:09:42.669Z,97367.16
2018-09-21T11:12:09.218Z,97363.08
2018-09-21T11:17:07.875Z,97358.33
2018-09-21T11:19:34.505Z,97361.70
2018-09-21T11:22:05.099Z,97358.10
2018-09-21T11:24:33.001Z,97352.04
2018-09-21T11:26:59.781Z,97360.12
2018-09-21T11:29:26.688Z,97355.81
2018-09-21T11:36:56.645Z,97334.52
2018-09-21T11:39:23.944Z,97334.53
2018-09-21T11:41:51.919Z,97334.47
2018-09-21T11:44:18.523Z,97334.09
2018-09-21T11:46:49.001Z,97336.55
2018-09-21T11:49:15.749Z,97329.27
2018-09-21T11:51:43.069Z,97324.44
2018-09-21T11:54:09.693Z,97325.52
2018-09-21T11:56:41.197Z,97319.31
2018-09-21T11:59:08.633Z,97322.24
2018-09-21T12:01:36.652Z,97315.45
2018-09-21T12:04:03.516Z,97316.52
2018-09-21T12:09:12.061Z,97304.54
2018-09-21T12:11:42.338Z,97300.77
2018-09-21T12:14:12.836Z,97296.38
2018-09-21T12:16:42.688Z,97296.72
2018-09-21T12:19:09.323Z,97295.55
2018-09-21T12:21:35.990Z,97293.52
2018-09-21T12:24:02.553Z,97282.45
2018-09-21T12:26:29.235Z,97281.75
2018-09-21T12:28:58.608Z,97275.64
2018-09-21T12:31:32.350Z,97277.47
2018-09-21T12:33:59.359Z,97279.48
2018-09-21T12:36:28.765Z,97271.81
2018-09-21T12:38:55.407Z,97278.03
2018-09-21T12:41:27.228Z,97266.58
2018-09-21T12:43:59.866Z,97262.34
2018-09-21T12:46:33.236Z,97258.14
2018-09-21T12:49:01.277Z,97253.91
2018-09-21T12:51:32.872Z,97254.78
2018-09-21T12:54:00.368Z,97252.80
2018-09-21T12:56:30.239Z,97252.60
2018-09-21T12:58:57.277Z,97249.85
2018-09-21T13:01:24.003Z,97245.37
2018-09-21T13:03:55.114Z,97247.09
2018-09-21T13:06:21.763Z,97249.75
2018-09-21T13:08:48.628Z,97243.34
2018-09-21T13:11:18.072Z,97237.89
2018-09-21T13:13:48.419Z,97227.12
2018-09-21T13:18:59.400Z,97223.30
2018-09-21T13:21:31.882Z,97214.30
2018-09-21T13:24:09.136Z,97219.91
2018-09-21T13:26:36.252Z,97216.70
2018-09-21T13:29:06.406Z,97208.84
2018-09-21T13:31:33.627Z,97211.09
2018-09-21T13:34:04.669Z,97202.76
2018-09-21T13:36:35.256Z,97203.25
2018-09-21T13:39:10.162Z,97198.08
2018-09-21T13:41:45.862Z,97200.30
2018-09-21T13:44:12.532Z,97193.70
2018-09-21T13:46:44.792Z,97194.98
2018-09-21T13:49:17.763Z,97192.42
2018-09-21T13:51:53.417Z,97189.70
2018-09-21T13:54:22.829Z,97194.55
2018-09-21T13:56:52.704Z,97186.90
2018-09-21T13:59:24.182Z,97184.87
2018-09-21T14:01:52.333Z,97187.30
2018-09-21T14:04:19.005Z,97183.12
2018-09-21T14:06:48.888Z,97180.93
2018-09-21T14:11:55.942Z,97178.58
2018-09-21T14:14:22.583Z,97173.47
2018-09-21T14:16:56.993Z,97172.83
2018-09-21T14:19:23.604Z,97173.69
2018-09-21T14:21:53.980Z,97174.84
2018-09-21T14:24:20.925Z,97168.57
2018-09-21T14:29:19.114Z,97170.52
2018-09-21T14:31:49.255Z,97166.02
2018-09-21T14:34:17.173Z,97171.52
2018-09-21T14:36:51.718Z,97168.31
2018-09-21T14:41:59.936Z,97170.67
2018-09-21T14:44:30.440Z,97158.22
2018-09-21T14:46:58.894Z,97159.75
2018-09-21T14:49:26.202Z,97160.59
2018-09-21T14:51:54.621Z,97164.25
2018-09-21T14:54:21.883Z,97156.44
2018-09-21T14:56:49.599Z,97159.48
2018-09-21T14:59:17.425Z,97155.46
2018-09-21T15:01:45.380Z,97152.20
2018-09-21T15:06:47.565Z,97147.91
2018-09-21T15:09:21.902Z,97145.28
2018-09-21T15:11:48.771Z,97143.77
2018-09-21T15:14:15.443Z,97135.26
2018-09-21T15:16:41.976Z,97141.95
2018-09-21T15:19:13.085Z,97135.54
2018-09-21T15:21:39.899Z,97128.86
2018-09-21T15:26:45.570Z,97137.41
2018-09-21T15:29:16.576Z,97137.45
2018-09-21T15:31:43.077Z,97143.86
2018-09-21T15:36:41.253Z,97140.86
2018-09-21T15:39:07.713Z,97140.81
2018-09-21T15:41:35.326Z,97140.00
2018-09-21T15:44:02.006Z,97142.10
2018-09-21T15:49:24.236Z,97141.16
2018-09-21T15:51:50.776Z,97132.84
2018-09-21T15:54:17.412Z,97141.23
2018-09-21T15:56:43.965Z,97131.48
2018-09-21T15:59:12.284Z,97131.11
2018-09-21T16:04:26.776Z,97126.78
2018-09-21T16:06:53.432Z,97125.73
2018-09-21T16:09:27.271Z,97119.82
2018-09-21T16:14:36.470Z,97121.67
2018-09-21T16:17:03.694Z,97119.39
2018-09-21T16:19:30.322Z,97126.73
2018-09-21T16:24:32.926Z,97132.56
2018-09-21T16:26:59.629Z,97133.14
2018-09-21T16:29:26.424Z,97139.69
2018-09-21T16:31:52.919Z,97139.86
2018-09-21T16:34:21.925Z,97133.52
2018-09-21T16:36:53.250Z,97137.75
2018-09-21T16:39:19.892Z,97137.69
2018-09-21T16:41:53.190Z,97143.50
2018-09-21T16:44:19.797Z,97141.41
2018-09-21T16:49:22.716Z,97143.82
2018-09-21T16:51:50.990Z,97135.63
2018-09-21T16:54:17.641Z,97134.92
2018-09-21T16:56:45.358Z,97126.32
2018-09-21T16:59:15.805Z,97125.06
2018-09-21T17:01:42.499Z,97120.87
2018-09-21T17:04:12.303Z,97119.14
2018-09-21T17:06:40.993Z,97117.38
2018-09-21T17:09:15.569Z,97125.72
2018-09-21T17:11:45.074Z,97130.68
2018-09-21T17:16:44.323Z,97130.99
2018-09-21T17:19:10.974Z,97133.42
2018-09-21T17:21:39.748Z,97131.02
2018-09-21T17:26:38.523Z,97131.51
2018-09-21T17:29:05.305Z,97134.06
2018-09-21T17:31:34.508Z,97141.86
2018-09-21T17:34:01.207Z,97139.16
2018-09-21T17:36:27.887Z,97146.88
2018-09-21T17:38:54.503Z,97140.67
2018-09-21T17:43:55.987Z,97142.55
2018-09-21T17:46:22.524Z,97140.76
2018-09-21T17:48:50.694Z,97138.69
2018-09-21T17:51:22.819Z,97140.61
2018-09-21T17:53:49.487Z,97137.69
2018-09-21T17:56:16.240Z,97141.77
2018-09-21T17:58:43.948Z,97142.73
2018-09-21T18:01:13.442Z,97146.48
2018-09-21T18:03:44.108Z,97151.84
2018-09-21T18:06:14.613Z,97156.25
2018-09-21T18:08:41.204Z,97161.62
2018-09-21T18:11:12.488Z,97161.09
2018-09-21T18:16:11.574Z,97153.66
2018-09-21T18:18:41.382Z,97163.89
2018-09-21T18:21:16.123Z,97167.47
2018-09-21T18:23:46.194Z,97170.52
2018-09-21T18:26:12.745Z,97166.42
2018-09-21T18:28:42.462Z,97173.70
2018-09-21T18:33:48.420Z,97174.17
2018-09-21T18:36:18.389Z,97180.63
2018-09-21T18:38:52.211Z,97187.89
2018-09-21T18:41:20.099Z,97188.45
2018-09-21T18:43:46.630Z,97175.38
2018-09-21T18:46:13.378Z,97172.70
2018-09-21T18:48:41.184Z,97167.81
2018-09-21T18:51:09.523Z,97164.56
2018-09-21T18:53:36.509Z,97167.26
2018-09-21T18:56:03.437Z,97172.67
2018-09-21T18:58:30.232Z,97164.86
2018-09-21T19:00:57.885Z,97161.64
2018-09-21T19:03:24.876Z,97159.02
2018-09-21T19:05:56.193Z,97161.63
2018-09-21T19:08:23.917Z,97162.64
2018-09-21T19:10:51.364Z,97162.35
2018-09-21T19:13:18.341Z,97167.80
2018-09-21T19:15:45.304Z,97163.55
2018-09-21T19:18:12.642Z,97161.66
2018-09-21T19:20:39.964Z,97168.18
2018-09-21T19:23:07.040Z,97165.97
2018-09-21T19:25:34.529Z,97166.84
2018-09-21T19:28:01.499Z,97168.70
2018-09-21T19:30:28.744Z,97168.73
2018-09-21T19:33:00.156Z,97174.42
2018-09-21T19:40:32.289Z,97168.52
2018-09-21T19:43:00.095Z,97172.23
2018-09-21T19:45:26.895Z,97169.32
2018-09-21T19:47:55.032Z,97172.00
2018-09-21T19:50:24.141Z,97170.66
2018-09-21T19:52:50.866Z,97177.07
2018-09-21T19:55:17.539Z,97181.37
2018-09-21T19:57:44.240Z,97183.48
2018-09-21T20:00:10.973Z,97184.05
2018-09-21T20:02:40.935Z,97184.06
2018-09-21T20:05:07.586Z,97178.15
2018-09-21T20:07:34.459Z,97178.66
2018-09-21T20:10:01.552Z,97185.39
2018-09-21T20:12:28.441Z,97186.72
2018-09-21T20:14:55.263Z,97182.16
2018-09-21T20:17:21.980Z,97176.50
2018-09-21T20:19:48.608Z,97174.42
2018-09-21T20:22:15.188Z,97174.95
2018-09-21T20:24:41.985Z,97170.34
2018-09-21T20:27:08.755Z,97178.63
2018-09-21T20:29:37.925Z,97171.16
2018-09-21T20:32:05.087Z,97176.00
2018-09-21T20:34:31.743Z,97174.36
2018-09-21T20:36:59.378Z,97174.66
2018-09-21T20:39:26.146Z,97175.16
2018-09-21T20:41:53.626Z,97177.55
2018-09-21T20:44:22.598Z,97179.41
2018-09-21T20:46:52.654Z,97177.81
2018-09-21T20:49:20.072Z,97169.77
2018-09-21T20:51:49.440Z,97180.77
2018-09-21T20:54:16.281Z,97179.36
2018-09-21T20:56:43.368Z,97171.77
2018-09-21T20:59:10.105Z,97169.73
2018-09-21T21:01:37.292Z,97172.97
2018-09-21T21:04:04.068Z,97175.34
2018-09-21T21:06:32.790Z,97172.07
2018-09-21T21:08:59.599Z,97176.70
2018-09-21T21:11:27.155Z,97168.10
2018-09-21T21:13:54.134Z,97165.50
2018-09-21T21:16:23.011Z,97160.03
2018-09-21T21:18:51.330Z,97159.72
2018-09-21T21:21:18.083Z,97169.40
2018-09-21T21:23:45.531Z,97164.82
2018-09-21T21:26:14.646Z,97178.91
2018-09-21T21:28:46.129Z,97168.67
2018-09-21T21:31:12.803Z,97174.67
2018-09-21T21:33:40.034Z,97181.41
2018-09-21T21:36:10.260Z,97186.13
2018-09-21T21:38:37.002Z,97181.72
2018-09-21T21:41:05.120Z,97181.10
2018-09-21T21:43:32.022Z,97192.80
2018-09-21T21:45:59.031Z,97194.47
2018-09-21T21:48:25.592Z,97192.40
2018-09-21T21:50:52.406Z,97186.27
2018-09-21T21:53:21.078Z,97179.57
2018-09-21T21:55:48.509Z,97183.52
2018-09-21T21:58:16.098Z,97178.75
2018-09-21T22:00:42.808Z,97187.14
2018-09-21T22:03:09.669Z,97179.05
2018-09-21T22:05:37.299Z,97186.92
2018-09-21T22:08:04.313Z,97183.91
2018-09-21T22:10:31.686Z,97182.02
2018-09-21T22:12:59.497Z,97186.03
2018-09-21T22:15:26.441Z,97181.50
2018-09-21T22:17:53.225Z,97185.09
2018-09-21T22:20:21.069Z,97187.77
2018-09-21T22:22:48.197Z,97184.34
2018-09-21T22:25:15.220Z,97186.52
2018-09-21T22:27:42.622Z,97183.78
2018-09-21T22:30:11.016Z,97190.39
2018-09-21T22:32:37.594Z,97187.79
2018-09-21T22:35:04.371Z,97190.30
2018-09-21T22:42:37.873Z,97199.41
2018-09-21T22:45:05.316Z,97194.47
2018-09-21T22:47:35.781Z,97191.11
2018-09-21T22:50:03.442Z,97182.24
2018-09-21T22:52:30.516Z,97193.92
2018-09-21T22:54:57.476Z,97191.45
2018-09-21T22:57:24.374Z,97193.61
2018-09-21T22:59:51.262Z,97197.14
2018-09-21T23:02:18.200Z,97196.09
2018-09-21T23:04:46.009Z,97194.30
2018-09-21T23:07:12.747Z,97196.34
2018-09-21T23:09:40.127Z,97196.80
2018-09-21T23:12:08.044Z,97201.48
2018-09-21T23:14:35.155Z,97208.27
2018-09-21T23:17:02.320Z,97204.66
2018-09-21T23:27:04.019Z,97198.30
2018-09-21T23:29:31.191Z,97194.31
2018-09-21T23:32:02.674Z,97193.78
2018-09-21T23:37:02.317Z,97198.77
2018-09-21T23:39:29.022Z,97191.80
2018-09-21T23:41:55.996Z,97185.78
2018-09-21T23:44:23.496Z,97185.20
2018-09-21T23:46:50.512Z,97187.79
2018-09-21T23:49:17.550Z,97187.37
2018-09-21T23:51:45.272Z,97182.52
2018-09-21T23:54:11.869Z,97178.19
2018-09-21T23:56:39.035Z,97186.72
2018-09-21T23:59:05.795Z,97195.51
